sensor_id;sensor_type;location;lat;lon;timestamp;P1;durP1;ratioP1;P2;durP2;ratioP2
18214;SDS011;9233;51.312;6.512;2022-10-13T00:02:32;10.27;;;4.40;;
18214;SDS011;9233;51.312;6.512;2022-10-13T00:05:18;14.57;;;5.47;;
18214;SDS011;9233;51.312;6.512;2022-10-13T00:08:07;12.10;;;5.20;;
18214;SDS011;9233;51.312;6.512;2022-10-13T00:11:00;8.20;;;4.47;;
18214;SDS011;9233;51.312;6.512;2022-10-13T00:13:48;13.87;;;4.53;;
18214;SDS011;9233;51.312;6.512;2022-10-13T00:16:35;15.53;;;4.80;;
18214;SDS011;9233;51.312;6.512;2022-10-13T00:19:21;9.97;;;4.10;;
18214;SDS011;9233;51.312;6.512;2022-10-13T00:22:08;11.13;;;4.07;;
18214;SDS011;9233;51.312;6.512;2022-10-13T00:24:56;12.70;;;4.47;;
18214;SDS011;9233;51.312;6.512;2022-10-13T00:27:42;13.33;;;4.53;;
18214;SDS011;9233;51.312;6.512;2022-10-13T00:30:32;12.90;;;4.73;;
18214;SDS011;9233;51.312;6.512;2022-10-13T00:33:19;11.37;;;4.50;;
18214;SDS011;9233;51.312;6.512;2022-10-13T00:36:05;12.57;;;4.60;;
18214;SDS011;9233;51.312;6.512;2022-10-13T00:38:52;11.50;;;4.43;;
18214;SDS011;9233;51.312;6.512;2022-10-13T00:41:40;13.03;;;4.10;;
18214;SDS011;9233;51.312;6.512;2022-10-13T00:47:44;14.13;;;4.27;;
18214;SDS011;9233;51.312;6.512;2022-10-13T00:50:33;13.60;;;4.73;;
18214;SDS011;9233;51.312;6.512;2022-10-13T00:53:24;12.73;;;4.50;;
18214;SDS011;9233;51.312;6.512;2022-10-13T00:56:14;6.87;;;4.20;;
18214;SDS011;9233;51.312;6.512;2022-10-13T00:59:04;10.07;;;4.60;;
18214;SDS011;9233;51.312;6.512;2022-10-13T01:01:59;12.17;;;5.10;;
18214;SDS011;9233;51.312;6.512;2022-10-13T01:04:47;7.73;;;4.20;;
18214;SDS011;9233;51.312;6.512;2022-10-13T01:07:34;11.57;;;4.80;;
18214;SDS011;9233;51.312;6.512;2022-10-13T01:10:23;7.47;;;4.13;;
18214;SDS011;9233;51.312;6.512;2022-10-13T01:13:16;10.50;;;4.13;;
18214;SDS011;9233;51.312;6.512;2022-10-13T01:16:08;15.60;;;4.37;;
18214;SDS011;9233;51.312;6.512;2022-10-13T01:19:00;10.17;;;4.60;;
18214;SDS011;9233;51.312;6.512;2022-10-13T01:21:54;10.37;;;4.93;;
18214;SDS011;9233;51.312;6.512;2022-10-13T01:24:48;9.70;;;4.37;;
18214;SDS011;9233;51.312;6.512;2022-10-13T01:27:48;6.83;;;4.10;;
18214;SDS011;9233;51.312;6.512;2022-10-13T01:30:44;11.63;;;4.90;;
18214;SDS011;9233;51.312;6.512;2022-10-13T01:33:34;12.20;;;4.40;;
18214;SDS011;9233;51.312;6.512;2022-10-13T01:36:29;12.83;;;5.20;;
18214;SDS011;9233;51.312;6.512;2022-10-13T01:39:20;9.13;;;4.30;;
18214;SDS011;9233;51.312;6.512;2022-10-13T01:42:10;9.67;;;4.53;;
18214;SDS011;9233;51.312;6.512;2022-10-13T01:45:00;9.70;;;4.37;;
18214;SDS011;9233;51.312;6.512;2022-10-13T01:47:49;7.87;;;4.50;;
18214;SDS011;9233;51.312;6.512;2022-10-13T01:50:36;13.03;;;4.03;;
18214;SDS011;9233;51.312;6.512;2022-10-13T01:53:23;10.80;;;4.60;;
18214;SDS011;9233;51.312;6.512;2022-10-13T01:56:11;7.80;;;4.13;;
18214;SDS011;9233;51.312;6.512;2022-10-13T01:59:00;8.00;;;4.23;;
18214;SDS011;9233;51.312;6.512;2022-10-13T02:01:52;6.83;;;3.63;;
18214;SDS011;9233;51.312;6.512;2022-10-13T02:04:47;8.30;;;4.07;;
18214;SDS011;9233;51.312;6.512;2022-10-13T02:07:40;11.23;;;4.60;;
18214;SDS011;9233;51.312;6.512;2022-10-13T02:10:32;9.47;;;4.30;;
18214;SDS011;9233;51.312;6.512;2022-10-13T02:13:20;9.37;;;4.13;;
18214;SDS011;9233;51.312;6.512;2022-10-13T02:16:08;11.40;;;5.30;;
18214;SDS011;9233;51.312;6.512;2022-10-13T02:18:55;13.20;;;5.23;;
18214;SDS011;9233;51.312;6.512;2022-10-13T02:21:43;10.93;;;3.97;;
18214;SDS011;9233;51.312;6.512;2022-10-13T02:24:31;7.40;;;4.00;;
18214;SDS011;9233;51.312;6.512;2022-10-13T02:27:18;6.90;;;4.00;;
18214;SDS011;9233;51.312;6.512;2022-10-13T02:30:05;12.63;;;4.53;;
18214;SDS011;9233;51.312;6.512;2022-10-13T02:32:52;6.43;;;4.10;;
18214;SDS011;9233;51.312;6.512;2022-10-13T02:35:39;6.70;;;3.50;;
18214;SDS011;9233;51.312;6.512;2022-10-13T02:38:28;7.83;;;4.00;;
18214;SDS011;9233;51.312;6.512;2022-10-13T02:41:15;7.70;;;3.53;;
18214;SDS011;9233;51.312;6.512;2022-10-13T02:44:01;10.63;;;4.10;;
18214;SDS011;9233;51.312;6.512;2022-10-13T02:46:52;10.03;;;3.87;;
18214;SDS011;9233;51.312;6.512;2022-10-13T02:49:39;8.80;;;3.90;;
18214;SDS011;9233;51.312;6.512;2022-10-13T02:52:25;7.87;;;4.30;;
18214;SDS011;9233;51.312;6.512;2022-10-13T02:55:13;6.63;;;4.57;;
18214;SDS011;9233;51.312;6.512;2022-10-13T02:58:02;10.23;;;4.00;;
18214;SDS011;9233;51.312;6.512;2022-10-13T03:00:49;10.60;;;4.53;;
18214;SDS011;9233;51.312;6.512;2022-10-13T03:03:35;12.20;;;4.10;;
18214;SDS011;9233;51.312;6.512;2022-10-13T03:06:22;9.70;;;4.20;;
18214;SDS011;9233;51.312;6.512;2022-10-13T03:09:08;8.73;;;4.20;;
18214;SDS011;9233;51.312;6.512;2022-10-13T03:11:58;8.23;;;4.30;;
18214;SDS011;9233;51.312;6.512;2022-10-13T03:14:45;7.07;;;3.90;;
18214;SDS011;9233;51.312;6.512;2022-10-13T03:17:31;10.87;;;4.57;;
18214;SDS011;9233;51.312;6.512;2022-10-13T03:20:18;7.43;;;3.87;;
18214;SDS011;9233;51.312;6.512;2022-10-13T03:23:04;11.47;;;4.17;;
18214;SDS011;9233;51.312;6.512;2022-10-13T03:25:52;8.23;;;4.20;;
18214;SDS011;9233;51.312;6.512;2022-10-13T03:28:40;8.07;;;4.23;;
18214;SDS011;9233;51.312;6.512;2022-10-13T03:31:28;6.53;;;3.88;;
18214;SDS011;9233;51.312;6.512;2022-10-13T03:34:20;8.53;;;4.70;;
18214;SDS011;9233;51.312;6.512;2022-10-13T03:37:06;13.17;;;4.57;;
18214;SDS011;9233;51.312;6.512;2022-10-13T03:39:59;8.60;;;4.43;;
18214;SDS011;9233;51.312;6.512;2022-10-13T03:42:46;12.40;;;4.47;;
18214;SDS011;9233;51.312;6.512;2022-10-13T03:45:34;7.27;;;4.10;;
18214;SDS011;9233;51.312;6.512;2022-10-13T03:48:20;7.40;;;3.80;;
18214;SDS011;9233;51.312;6.512;2022-10-13T03:51:07;11.20;;;4.67;;
18214;SDS011;9233;51.312;6.512;2022-10-13T03:53:55;9.83;;;4.30;;
18214;SDS011;9233;51.312;6.512;2022-10-13T03:56:41;7.63;;;4.00;;
18214;SDS011;9233;51.312;6.512;2022-10-13T03:59:28;10.07;;;3.97;;
18214;SDS011;9233;51.312;6.512;2022-10-13T04:02:16;9.10;;;4.53;;
18214;SDS011;9233;51.312;6.512;2022-10-13T04:05:03;8.80;;;4.47;;
18214;SDS011;9233;51.312;6.512;2022-10-13T04:07:50;9.13;;;4.50;;
18214;SDS011;9233;51.312;6.512;2022-10-13T04:10:38;7.73;;;4.37;;
18214;SDS011;9233;51.312;6.512;2022-10-13T04:13:25;6.67;;;3.93;;
18214;SDS011;9233;51.312;6.512;2022-10-13T04:16:12;9.63;;;4.50;;
18214;SDS011;9233;51.312;6.512;2022-10-13T04:19:02;7.63;;;4.80;;
18214;SDS011;9233;51.312;6.512;2022-10-13T04:21:49;7.23;;;4.37;;
18214;SDS011;9233;51.312;6.512;2022-10-13T04:24:36;9.90;;;4.83;;
18214;SDS011;9233;51.312;6.512;2022-10-13T04:27:23;9.43;;;4.53;;
18214;SDS011;9233;51.312;6.512;2022-10-13T04:30:11;6.33;;;4.23;;
18214;SDS011;9233;51.312;6.512;2022-10-13T04:32:57;9.60;;;4.50;;
18214;SDS011;9233;51.312;6.512;2022-10-13T04:35:45;6.77;;;4.00;;
18214;SDS011;9233;51.312;6.512;2022-10-13T04:38:32;9.93;;;4.20;;
18214;SDS011;9233;51.312;6.512;2022-10-13T04:41:19;9.17;;;4.30;;
18214;SDS011;9233;51.312;6.512;2022-10-13T04:44:05;8.83;;;4.47;;
18214;SDS011;9233;51.312;6.512;2022-10-13T04:46:52;8.03;;;4.40;;
18214;SDS011;9233;51.312;6.512;2022-10-13T04:49:38;9.83;;;4.50;;
18214;SDS011;9233;51.312;6.512;2022-10-13T04:52:26;11.10;;;4.53;;
18214;SDS011;9233;51.312;6.512;2022-10-13T04:55:14;7.73;;;4.50;;
18214;SDS011;9233;51.312;6.512;2022-10-13T04:58:01;8.27;;;4.07;;
18214;SDS011;9233;51.312;6.512;2022-10-13T05:00:48;6.57;;;4.00;;
18214;SDS011;9233;51.312;6.512;2022-10-13T05:03:35;7.33;;;4.03;;
18214;SDS011;9233;51.312;6.512;2022-10-13T05:06:22;7.97;;;5.00;;
18214;SDS011;9233;51.312;6.512;2022-10-13T05:09:15;9.40;;;5.07;;
18214;SDS011;9233;51.312;6.512;2022-10-13T05:12:01;13.73;;;5.07;;
18214;SDS011;9233;51.312;6.512;2022-10-13T05:14:48;9.93;;;4.33;;
18214;SDS011;9233;51.312;6.512;2022-10-13T05:17:35;9.23;;;4.50;;
18214;SDS011;9233;51.312;6.512;2022-10-13T05:20:26;10.30;;;5.17;;
18214;SDS011;9233;51.312;6.512;2022-10-13T05:23:13;16.60;;;5.23;;
18214;SDS011;9233;51.312;6.512;2022-10-13T05:26:02;6.97;;;3.93;;
18214;SDS011;9233;51.312;6.512;2022-10-13T05:28:49;8.23;;;4.83;;
18214;SDS011;9233;51.312;6.512;2022-10-13T05:31:36;11.97;;;6.90;;
18214;SDS011;9233;51.312;6.512;2022-10-13T05:34:22;8.77;;;4.77;;
18214;SDS011;9233;51.312;6.512;2022-10-13T05:37:09;7.80;;;4.67;;
18214;SDS011;9233;51.312;6.512;2022-10-13T05:39:55;8.93;;;4.37;;
18214;SDS011;9233;51.312;6.512;2022-10-13T05:42:43;6.57;;;4.17;;
18214;SDS011;9233;51.312;6.512;2022-10-13T05:45:31;10.70;;;4.70;;
18214;SDS011;9233;51.312;6.512;2022-10-13T05:48:18;9.87;;;4.43;;
18214;SDS011;9233;51.312;6.512;2022-10-13T05:51:06;6.87;;;4.43;;
18214;SDS011;9233;51.312;6.512;2022-10-13T05:53:57;7.40;;;4.17;;
18214;SDS011;9233;51.312;6.512;2022-10-13T05:56:46;8.00;;;4.53;;
18214;SDS011;9233;51.312;6.512;2022-10-13T05:59:38;9.03;;;4.97;;
18214;SDS011;9233;51.312;6.512;2022-10-13T06:02:27;11.87;;;4.73;;
18214;SDS011;9233;51.312;6.512;2022-10-13T06:05:19;12.23;;;5.03;;
18214;SDS011;9233;51.312;6.512;2022-10-13T06:08:10;10.70;;;4.27;;
18214;SDS011;9233;51.312;6.512;2022-10-13T06:10:57;8.17;;;4.57;;
18214;SDS011;9233;51.312;6.512;2022-10-13T06:13:44;9.90;;;4.43;;
18214;SDS011;9233;51.312;6.512;2022-10-13T06:16:31;8.17;;;5.00;;
18214;SDS011;9233;51.312;6.512;2022-10-13T06:19:19;11.53;;;4.80;;
18214;SDS011;9233;51.312;6.512;2022-10-13T06:22:06;7.93;;;4.67;;
18214;SDS011;9233;51.312;6.512;2022-10-13T06:24:53;7.90;;;4.73;;
18214;SDS011;9233;51.312;6.512;2022-10-13T06:27:39;11.63;;;5.23;;
18214;SDS011;9233;51.312;6.512;2022-10-13T06:30:26;12.67;;;6.00;;
18214;SDS011;9233;51.312;6.512;2022-10-13T06:33:15;11.27;;;5.43;;
18214;SDS011;9233;51.312;6.512;2022-10-13T06:36:01;11.67;;;4.93;;
18214;SDS011;9233;51.312;6.512;2022-10-13T06:38:49;9.90;;;4.67;;
18214;SDS011;9233;51.312;6.512;2022-10-13T06:41:39;9.03;;;4.67;;
18214;SDS011;9233;51.312;6.512;2022-10-13T06:44:26;7.23;;;4.50;;
18214;SDS011;9233;51.312;6.512;2022-10-13T06:47:19;7.93;;;4.43;;
18214;SDS011;9233;51.312;6.512;2022-10-13T06:50:07;9.50;;;4.77;;
18214;SDS011;9233;51.312;6.512;2022-10-13T06:52:54;7.67;;;4.03;;
18214;SDS011;9233;51.312;6.512;2022-10-13T06:55:41;7.43;;;4.33;;
18214;SDS011;9233;51.312;6.512;2022-10-13T06:58:28;9.00;;;4.57;;
18214;SDS011;9233;51.312;6.512;2022-10-13T07:01:14;8.47;;;4.83;;
18214;SDS011;9233;51.312;6.512;2022-10-13T07:04:01;8.43;;;4.47;;
18214;SDS011;9233;51.312;6.512;2022-10-13T07:06:49;7.00;;;4.27;;
18214;SDS011;9233;51.312;6.512;2022-10-13T07:09:36;6.97;;;4.43;;
18214;SDS011;9233;51.312;6.512;2022-10-13T07:12:23;9.30;;;4.37;;
18214;SDS011;9233;51.312;6.512;2022-10-13T07:15:09;10.10;;;4.43;;
18214;SDS011;9233;51.312;6.512;2022-10-13T07:17:56;7.77;;;4.60;;
18214;SDS011;9233;51.312;6.512;2022-10-13T07:20:43;9.43;;;4.50;;
18214;SDS011;9233;51.312;6.512;2022-10-13T07:23:31;9.60;;;4.37;;
18214;SDS011;9233;51.312;6.512;2022-10-13T07:26:18;10.27;;;4.40;;
18214;SDS011;9233;51.312;6.512;2022-10-13T07:29:04;15.07;;;5.30;;
18214;SDS011;9233;51.312;6.512;2022-10-13T07:31:51;7.43;;;4.10;;
18214;SDS011;9233;51.312;6.512;2022-10-13T07:34:38;9.37;;;5.10;;
18214;SDS011;9233;51.312;6.512;2022-10-13T07:37:24;9.20;;;4.50;;
18214;SDS011;9233;51.312;6.512;2022-10-13T07:40:12;10.30;;;4.77;;
18214;SDS011;9233;51.312;6.512;2022-10-13T07:42:59;9.07;;;4.87;;
18214;SDS011;9233;51.312;6.512;2022-10-13T07:45:46;8.30;;;4.63;;
18214;SDS011;9233;51.312;6.512;2022-10-13T07:48:36;7.47;;;4.30;;
18214;SDS011;9233;51.312;6.512;2022-10-13T07:51:22;12.43;;;5.10;;
18214;SDS011;9233;51.312;6.512;2022-10-13T07:54:09;7.83;;;4.20;;
18214;SDS011;9233;51.312;6.512;2022-10-13T07:56:57;9.53;;;4.90;;
18214;SDS011;9233;51.312;6.512;2022-10-13T07:59:44;9.27;;;5.30;;
18214;SDS011;9233;51.312;6.512;2022-10-13T08:02:31;9.03;;;5.40;;
18214;SDS011;9233;51.312;6.512;2022-10-13T08:05:18;9.40;;;4.93;;
18214;SDS011;9233;51.312;6.512;2022-10-13T08:08:05;11.53;;;5.07;;
18214;SDS011;9233;51.312;6.512;2022-10-13T08:10:52;7.73;;;4.63;;
18214;SDS011;9233;51.312;6.512;2022-10-13T08:13:40;9.73;;;4.67;;
18214;SDS011;9233;51.312;6.512;2022-10-13T08:16:31;12.57;;;4.90;;
18214;SDS011;9233;51.312;6.512;2022-10-13T08:19:18;12.60;;;5.53;;
18214;SDS011;9233;51.312;6.512;2022-10-13T08:22:07;13.07;;;4.70;;
18214;SDS011;9233;51.312;6.512;2022-10-13T08:24:54;8.57;;;4.57;;
18214;SDS011;9233;51.312;6.512;2022-10-13T08:27:41;11.97;;;5.37;;
18214;SDS011;9233;51.312;6.512;2022-10-13T08:30:29;10.80;;;5.20;;
18214;SDS011;9233;51.312;6.512;2022-10-13T08:33:16;10.13;;;5.17;;
18214;SDS011;9233;51.312;6.512;2022-10-13T08:36:02;8.47;;;5.13;;
18214;SDS011;9233;51.312;6.512;2022-10-13T08:38:49;7.87;;;4.90;;
18214;SDS011;9233;51.312;6.512;2022-10-13T08:41:38;12.10;;;5.87;;
18214;SDS011;9233;51.312;6.512;2022-10-13T08:44:29;8.27;;;4.77;;
18214;SDS011;9233;51.312;6.512;2022-10-13T08:47:29;11.43;;;5.07;;
18214;SDS011;9233;51.312;6.512;2022-10-13T08:50:23;10.63;;;5.03;;
18214;SDS011;9233;51.312;6.512;2022-10-13T08:53:12;10.43;;;5.77;;
18214;SDS011;9233;51.312;6.512;2022-10-13T08:56:08;8.13;;;4.87;;
18214;SDS011;9233;51.312;6.512;2022-10-13T08:59:01;9.27;;;5.13;;
18214;SDS011;9233;51.312;6.512;2022-10-13T09:01:50;11.40;;;4.63;;
18214;SDS011;9233;51.312;6.512;2022-10-13T09:04:40;12.47;;;5.37;;
18214;SDS011;9233;51.312;6.512;2022-10-13T09:07:30;11.00;;;4.70;;
18214;SDS011;9233;51.312;6.512;2022-10-13T09:10:18;10.20;;;5.50;;
18214;SDS011;9233;51.312;6.512;2022-10-13T09:13:05;6.40;;;4.30;;
18214;SDS011;9233;51.312;6.512;2022-10-13T09:15:51;11.00;;;5.20;;
18214;SDS011;9233;51.312;6.512;2022-10-13T09:18:38;9.13;;;5.47;;
18214;SDS011;9233;51.312;6.512;2022-10-13T09:21:34;10.17;;;4.80;;
18214;SDS011;9233;51.312;6.512;2022-10-13T09:24:22;12.33;;;5.47;;
18214;SDS011;9233;51.312;6.512;2022-10-13T09:27:10;12.80;;;5.93;;
18214;SDS011;9233;51.312;6.512;2022-10-13T09:30:00;9.87;;;5.30;;
18214;SDS011;9233;51.312;6.512;2022-10-13T09:33:14;13.63;;;4.97;;
18214;SDS011;9233;51.312;6.512;2022-10-13T09:36:07;10.83;;;5.43;;
18214;SDS011;9233;51.312;6.512;2022-10-13T09:39:10;11.13;;;5.40;;
18214;SDS011;9233;51.312;6.512;2022-10-13T09:42:08;10.17;;;5.20;;
18214;SDS011;9233;51.312;6.512;2022-10-13T09:45:11;11.73;;;5.47;;
18214;SDS011;9233;51.312;6.512;2022-10-13T09:48:00;12.20;;;5.03;;
18214;SDS011;9233;51.312;6.512;2022-10-13T09:50:49;10.70;;;5.13;;
18214;SDS011;9233;51.312;6.512;2022-10-13T09:53:38;11.40;;;5.60;;
18214;SDS011;9233;51.312;6.512;2022-10-13T09:56:27;8.30;;;5.50;;
18214;SDS011;9233;51.312;6.512;2022-10-13T09:59:20;10.23;;;4.47;;
18214;SDS011;9233;51.312;6.512;2022-10-13T10:02:15;12.33;;;5.27;;
18214;SDS011;9233;51.312;6.512;2022-10-13T10:05:06;10.13;;;4.97;;
18214;SDS011;9233;51.312;6.512;2022-10-13T10:08:05;10.10;;;5.60;;
18214;SDS011;9233;51.312;6.512;2022-10-13T10:10:59;12.57;;;5.40;;
18214;SDS011;9233;51.312;6.512;2022-10-13T10:13:48;10.53;;;4.40;;
18214;SDS011;9233;51.312;6.512;2022-10-13T10:16:37;12.33;;;5.10;;
18214;SDS011;9233;51.312;6.512;2022-10-13T10:19:41;9.07;;;4.47;;
18214;SDS011;9233;51.312;6.512;2022-10-13T10:22:33;8.30;;;4.50;;
18214;SDS011;9233;51.312;6.512;2022-10-13T10:25:25;11.07;;;4.80;;
18214;SDS011;9233;51.312;6.512;2022-10-13T10:31:34;10.13;;;5.20;;
18214;SDS011;9233;51.312;6.512;2022-10-13T10:34:26;11.37;;;4.70;;
18214;SDS011;9233;51.312;6.512;2022-10-13T10:37:17;9.53;;;5.43;;
18214;SDS011;9233;51.312;6.512;2022-10-13T10:40:09;10.70;;;4.87;;
18214;SDS011;9233;51.312;6.512;2022-10-13T10:43:06;10.33;;;4.73;;
18214;SDS011;9233;51.312;6.512;2022-10-13T10:46:03;8.07;;;4.47;;
18214;SDS011;9233;51.312;6.512;2022-10-13T10:48:55;8.33;;;4.67;;
18214;SDS011;9233;51.312;6.512;2022-10-13T10:51:43;7.50;;;4.40;;
18214;SDS011;9233;51.312;6.512;2022-10-13T10:54:32;9.57;;;4.10;;
18214;SDS011;9233;51.312;6.512;2022-10-13T10:57:24;7.03;;;3.70;;
18214;SDS011;9233;51.312;6.512;2022-10-13T11:00:15;7.03;;;3.20;;
18214;SDS011;9233;51.312;6.512;2022-10-13T11:03:05;9.90;;;3.97;;
18214;SDS011;9233;51.312;6.512;2022-10-13T11:05:59;5.70;;;3.30;;
18214;SDS011;9233;51.312;6.512;2022-10-13T11:08:48;7.40;;;3.07;;
18214;SDS011;9233;51.312;6.512;2022-10-13T11:11:37;5.37;;;3.10;;
18214;SDS011;9233;51.312;6.512;2022-10-13T11:14:30;5.80;;;3.43;;
18214;SDS011;9233;51.312;6.512;2022-10-13T11:17:18;8.90;;;3.40;;
18214;SDS011;9233;51.312;6.512;2022-10-13T11:23:29;6.57;;;3.13;;
18214;SDS011;9233;51.312;6.512;2022-10-13T11:26:23;8.87;;;3.60;;
18214;SDS011;9233;51.312;6.512;2022-10-13T11:29:17;7.77;;;2.87;;
18214;SDS011;9233;51.312;6.512;2022-10-13T11:32:10;6.80;;;3.03;;
18214;SDS011;9233;51.312;6.512;2022-10-13T11:35:39;7.77;;;3.00;;
18214;SDS011;9233;51.312;6.512;2022-10-13T11:38:28;5.60;;;2.90;;
18214;SDS011;9233;51.312;6.512;2022-10-13T11:41:20;5.07;;;2.63;;
18214;SDS011;9233;51.312;6.512;2022-10-13T11:44:12;7.13;;;3.13;;
18214;SDS011;9233;51.312;6.512;2022-10-13T11:47:05;7.83;;;3.40;;
18214;SDS011;9233;51.312;6.512;2022-10-13T11:49:58;6.60;;;3.13;;
18214;SDS011;9233;51.312;6.512;2022-10-13T11:52:59;7.27;;;3.07;;
18214;SDS011;9233;51.312;6.512;2022-10-13T11:55:54;7.20;;;3.50;;
18214;SDS011;9233;51.312;6.512;2022-10-13T11:58:41;8.50;;;3.50;;
18214;SDS011;9233;51.312;6.512;2022-10-13T12:01:28;4.83;;;3.03;;
18214;SDS011;9233;51.312;6.512;2022-10-13T12:04:14;7.87;;;3.27;;
18214;SDS011;9233;51.312;6.512;2022-10-13T12:07:01;5.63;;;3.37;;
18214;SDS011;9233;51.312;6.512;2022-10-13T12:09:50;8.33;;;3.77;;
18214;SDS011;9233;51.312;6.512;2022-10-13T12:12:45;7.70;;;3.50;;
18214;SDS011;9233;51.312;6.512;2022-10-13T12:15:33;8.20;;;3.53;;
18214;SDS011;9233;51.312;6.512;2022-10-13T12:18:22;8.03;;;3.80;;
18214;SDS011;9233;51.312;6.512;2022-10-13T12:21:10;10.97;;;4.47;;
18214;SDS011;9233;51.312;6.512;2022-10-13T12:24:04;6.60;;;3.37;;
18214;SDS011;9233;51.312;6.512;2022-10-13T12:26:53;8.00;;;3.53;;
18214;SDS011;9233;51.312;6.512;2022-10-13T12:29:41;6.10;;;3.47;;
18214;SDS011;9233;51.312;6.512;2022-10-13T12:32:28;6.50;;;4.03;;
18214;SDS011;9233;51.312;6.512;2022-10-13T12:35:18;6.07;;;3.40;;
18214;SDS011;9233;51.312;6.512;2022-10-13T12:38:05;7.67;;;3.50;;
18214;SDS011;9233;51.312;6.512;2022-10-13T12:40:54;6.40;;;3.10;;
18214;SDS011;9233;51.312;6.512;2022-10-13T12:43:43;7.27;;;3.70;;
18214;SDS011;9233;51.312;6.512;2022-10-13T12:46:35;9.00;;;3.43;;
18214;SDS011;9233;51.312;6.512;2022-10-13T12:49:26;6.20;;;2.93;;
18214;SDS011;9233;51.312;6.512;2022-10-13T12:52:14;8.23;;;3.40;;
18214;SDS011;9233;51.312;6.512;2022-10-13T12:55:11;7.83;;;3.10;;
18214;SDS011;9233;51.312;6.512;2022-10-13T12:57:59;6.57;;;3.43;;
18214;SDS011;9233;51.312;6.512;2022-10-13T13:03:56;7.63;;;3.10;;
18214;SDS011;9233;51.312;6.512;2022-10-13T13:06:51;7.30;;;2.97;;
18214;SDS011;9233;51.312;6.512;2022-10-13T13:09:41;5.80;;;3.10;;
18214;SDS011;9233;51.312;6.512;2022-10-13T13:12:27;8.87;;;3.90;;
18214;SDS011;9233;51.312;6.512;2022-10-13T13:15:17;8.40;;;3.40;;
18214;SDS011;9233;51.312;6.512;2022-10-13T13:21:17;5.50;;;2.90;;
18214;SDS011;9233;51.312;6.512;2022-10-13T13:24:05;4.97;;;2.53;;
18214;SDS011;9233;51.312;6.512;2022-10-13T13:26:51;4.83;;;2.73;;
18214;SDS011;9233;51.312;6.512;2022-10-13T13:29:38;7.60;;;2.80;;
18214;SDS011;9233;51.312;6.512;2022-10-13T13:32:25;5.00;;;2.70;;
18214;SDS011;9233;51.312;6.512;2022-10-13T13:35:13;6.30;;;3.20;;
18214;SDS011;9233;51.312;6.512;2022-10-13T13:38:00;5.80;;;2.80;;
18214;SDS011;9233;51.312;6.512;2022-10-13T13:40:47;6.03;;;2.90;;
18214;SDS011;9233;51.312;6.512;2022-10-13T13:43:33;10.13;;;3.30;;
18214;SDS011;9233;51.312;6.512;2022-10-13T13:46:21;4.97;;;2.93;;
18214;SDS011;9233;51.312;6.512;2022-10-13T13:49:09;8.43;;;3.30;;
18214;SDS011;9233;51.312;6.512;2022-10-13T13:51:56;5.73;;;3.17;;
18214;SDS011;9233;51.312;6.512;2022-10-13T13:54:44;5.60;;;3.03;;
18214;SDS011;9233;51.312;6.512;2022-10-13T13:57:31;6.40;;;3.00;;
18214;SDS011;9233;51.312;6.512;2022-10-13T14:00:18;5.17;;;3.43;;
18214;SDS011;9233;51.312;6.512;2022-10-13T14:03:10;9.57;;;3.90;;
18214;SDS011;9233;51.312;6.512;2022-10-13T14:05:57;8.20;;;3.73;;
18214;SDS011;9233;51.312;6.512;2022-10-13T14:08:44;12.33;;;3.93;;
18214;SDS011;9233;51.312;6.512;2022-10-13T14:11:32;5.53;;;3.53;;
18214;SDS011;9233;51.312;6.512;2022-10-13T14:14:18;5.37;;;3.73;;
18214;SDS011;9233;51.312;6.512;2022-10-13T14:17:05;8.47;;;4.90;;
18214;SDS011;9233;51.312;6.512;2022-10-13T14:19:51;8.23;;;4.20;;
18214;SDS011;9233;51.312;6.512;2022-10-13T14:22:38;5.93;;;3.60;;
18214;SDS011;9233;51.312;6.512;2022-10-13T14:25:25;6.33;;;3.67;;
18214;SDS011;9233;51.312;6.512;2022-10-13T14:28:13;7.60;;;4.23;;
18214;SDS011;9233;51.312;6.512;2022-10-13T14:31:02;9.80;;;3.83;;
18214;SDS011;9233;51.312;6.512;2022-10-13T14:33:50;6.57;;;3.53;;
18214;SDS011;9233;51.312;6.512;2022-10-13T14:36:36;7.10;;;3.90;;
18214;SDS011;9233;51.312;6.512;2022-10-13T14:39:23;6.67;;;3.70;;
18214;SDS011;9233;51.312;6.512;2022-10-13T14:42:11;8.93;;;3.93;;
18214;SDS011;9233;51.312;6.512;2022-10-13T14:44:59;6.93;;;4.07;;
18214;SDS011;9233;51.312;6.512;2022-10-13T14:47:46;11.13;;;4.27;;
18214;SDS011;9233;51.312;6.512;2022-10-13T14:50:33;9.13;;;4.20;;
18214;SDS011;9233;51.312;6.512;2022-10-13T14:53:22;8.53;;;4.20;;
18214;SDS011;9233;51.312;6.512;2022-10-13T14:56:12;5.80;;;4.10;;
18214;SDS011;9233;51.312;6.512;2022-10-13T14:59:07;10.47;;;4.77;;
18214;SDS011;9233;51.312;6.512;2022-10-13T15:01:56;10.93;;;4.73;;
18214;SDS011;9233;51.312;6.512;2022-10-13T15:04:42;9.20;;;4.27;;
18214;SDS011;9233;51.312;6.512;2022-10-13T15:07:29;7.87;;;4.00;;
18214;SDS011;9233;51.312;6.512;2022-10-13T15:10:16;7.87;;;3.93;;
18214;SDS011;9233;51.312;6.512;2022-10-13T15:13:02;8.00;;;3.57;;
18214;SDS011;9233;51.312;6.512;2022-10-13T15:15:49;9.10;;;3.63;;
18214;SDS011;9233;51.312;6.512;2022-10-13T15:18:37;6.37;;;3.63;;
18214;SDS011;9233;51.312;6.512;2022-10-13T15:21:23;6.43;;;3.47;;
18214;SDS011;9233;51.312;6.512;2022-10-13T15:24:10;9.77;;;3.70;;
18214;SDS011;9233;51.312;6.512;2022-10-13T15:26:59;6.57;;;2.90;;
18214;SDS011;9233;51.312;6.512;2022-10-13T15:29:48;7.27;;;3.30;;
18214;SDS011;9233;51.312;6.512;2022-10-13T15:32:34;4.23;;;2.80;;
18214;SDS011;9233;51.312;6.512;2022-10-13T15:35:22;7.97;;;3.60;;
18214;SDS011;9233;51.312;6.512;2022-10-13T15:38:09;7.43;;;3.80;;
18214;SDS011;9233;51.312;6.512;2022-10-13T15:40:57;5.97;;;3.87;;
18214;SDS011;9233;51.312;6.512;2022-10-13T15:43:44;9.17;;;4.23;;
18214;SDS011;9233;51.312;6.512;2022-10-13T15:46:31;6.80;;;4.17;;
18214;SDS011;9233;51.312;6.512;2022-10-13T15:49:18;9.57;;;4.33;;
18214;SDS011;9233;51.312;6.512;2022-10-13T15:52:06;8.10;;;3.90;;
18214;SDS011;9233;51.312;6.512;2022-10-13T15:54:52;7.50;;;4.27;;
18214;SDS011;9233;51.312;6.512;2022-10-13T15:57:39;6.83;;;4.23;;
18214;SDS011;9233;51.312;6.512;2022-10-13T16:00:26;7.70;;;3.87;;
18214;SDS011;9233;51.312;6.512;2022-10-13T16:03:13;8.63;;;3.97;;
18214;SDS011;9233;51.312;6.512;2022-10-13T16:06:01;6.13;;;3.80;;
18214;SDS011;9233;51.312;6.512;2022-10-13T16:08:50;7.67;;;4.30;;
18214;SDS011;9233;51.312;6.512;2022-10-13T16:11:36;7.07;;;3.97;;
18214;SDS011;9233;51.312;6.512;2022-10-13T16:14:23;6.93;;;3.40;;
18214;SDS011;9233;51.312;6.512;2022-10-13T16:17:09;5.07;;;2.97;;
18214;SDS011;9233;51.312;6.512;2022-10-13T16:19:56;9.23;;;4.27;;
18214;SDS011;9233;51.312;6.512;2022-10-13T16:22:43;8.03;;;3.93;;
18214;SDS011;9233;51.312;6.512;2022-10-13T16:25:31;7.63;;;3.63;;
18214;SDS011;9233;51.312;6.512;2022-10-13T16:28:17;5.70;;;3.47;;
18214;SDS011;9233;51.312;6.512;2022-10-13T16:31:04;9.53;;;3.70;;
18214;SDS011;9233;51.312;6.512;2022-10-13T16:33:53;7.33;;;3.90;;
18214;SDS011;9233;51.312;6.512;2022-10-13T16:36:40;15.23;;;8.43;;
18214;SDS011;9233;51.312;6.512;2022-10-13T16:39:26;12.30;;;7.50;;
18214;SDS011;9233;51.312;6.512;2022-10-13T16:42:14;11.47;;;5.53;;
18214;SDS011;9233;51.312;6.512;2022-10-13T16:45:01;7.57;;;4.10;;
18214;SDS011;9233;51.312;6.512;2022-10-13T16:47:49;8.47;;;4.73;;
18214;SDS011;9233;51.312;6.512;2022-10-13T16:50:36;7.03;;;4.60;;
18214;SDS011;9233;51.312;6.512;2022-10-13T16:53:23;9.77;;;4.17;;
18214;SDS011;9233;51.312;6.512;2022-10-13T16:56:09;7.17;;;3.77;;
18214;SDS011;9233;51.312;6.512;2022-10-13T16:58:58;9.40;;;3.90;;
18214;SDS011;9233;51.312;6.512;2022-10-13T17:01:45;7.60;;;3.97;;
18214;SDS011;9233;51.312;6.512;2022-10-13T17:04:32;8.00;;;4.13;;
18214;SDS011;9233;51.312;6.512;2022-10-13T17:07:19;8.20;;;3.97;;
18214;SDS011;9233;51.312;6.512;2022-10-13T17:10:06;7.43;;;3.83;;
18214;SDS011;9233;51.312;6.512;2022-10-13T17:12:53;6.77;;;4.30;;
18214;SDS011;9233;51.312;6.512;2022-10-13T17:15:48;7.57;;;3.90;;
18214;SDS011;9233;51.312;6.512;2022-10-13T17:18:35;7.43;;;3.47;;
18214;SDS011;9233;51.312;6.512;2022-10-13T17:21:22;15.43;;;6.97;;
18214;SDS011;9233;51.312;6.512;2022-10-13T17:24:08;10.90;;;5.53;;
18214;SDS011;9233;51.312;6.512;2022-10-13T17:26:55;8.70;;;4.80;;